KAIA

Alliance Municipal Airport

Alliance, Nebraska, USA
METAR KAIA 232153Z AUTO 13006KT 10SM SCT050 M06/M10 A3007 RMK AO2 SLP248 T10561100
Observed Flight Rules
Feb-23 @ 21:53 UTC (44 minutes ago) Visual Flight Rules
Wind Visibility Clouds
130° at 6 knots 10 miles
  • Scattered at 5,000' AGL
Temperatures Readings
Current -6°C / 21°F
Dewpoint -10°C / 14°F
Humidity 74%
Altimeter 30.07" Hg
Pressure 1024.8 hPa
Elevation 1196
METAR KAIA 232153Z AUTO 13006KT 10SM SCT050 M06/M10 A3007 RMK AO2 SLP248 T10561100
Observed Flight Rules
Feb-23 @ 21:53 UTC
(44 minutes ago)
VFR
Wind Visibility
130° at 6 knots 10 miles
Clouds
  • Scattered at 5,000' AGL
Temperature Dewpoint
-6°C / 21°F -10°C / 14°F
Humidity Altimeter Pressure
74% 30.07" Hg 1024.8 hPa